Time;durP1;ratioP1;P1;durP2;ratioP2;P2;SDS_P1;SDS_P2;PMS_P1;PMS_P2;Temp;Humidity;BMP_temperature;BMP_pressure;BME280_temperature;BME280_humidity;BME280_pressure;Samples;Min_cycle;Max_cycle;Signal;HPM_P1;HPM_P2
2023/05/26 00:00:48;;;;;;;;;;;;;;;11.21;61.43;101845.69;107510;1259;61410;-87
2023/05/26 00:03:38;;;;;;;;;;;;;;;11.19;61.52;101850.84;107517;1256;60326;-87
2023/05/26 00:06:10;;;;;;;;;;;;;;;11.16;61.50;101847.56;107906;1256;73102;-88
2023/05/26 00:08:47;;;;;;;;;;;;;;;11.13;61.55;101845.52;107856;1255;65471;-88
2023/05/26 00:11:45;;;;;;;;;;;;;;;11.09;61.56;101846.09;107596;1257;70125;-88
2023/05/26 00:14:18;;;;;;;;;;;;;;;11.07;61.55;101846.35;107730;1256;124271;-88
2023/05/26 00:17:16;;;;;;;;;;;;;;;11.04;61.60;101843.77;107784;1256;61257;-88
2023/05/26 00:19:44;;;;;;;;;;;;;;;11.02;61.73;101843.85;107719;1257;124258;-87
2023/05/26 00:22:24;;;;;;;;;;;;;;;10.99;61.85;101846.89;107883;1256;64604;-87
2023/05/26 00:25:05;;;;;;;;;;;;;;;10.96;61.86;101844.14;107267;1256;124346;-87
2023/05/26 00:27:47;;;;;;;;;;;;;;;10.93;61.88;101842.42;107213;1260;61369;-87
2023/05/26 00:30:51;;;;;;;;;;;;;;;10.90;61.96;101835.64;107447;1256;61174;-87
2023/05/26 00:33:19;;;;;;;;;;;;;;;10.87;62.05;101835.52;107294;1256;74521;-84
2023/05/26 00:35:46;;;;;;;;;;;;;;;10.84;62.12;101839.11;108224;1256;66778;-84
2023/05/26 00:38:13;;;;;;;;;;;;;;;10.82;62.18;101840.59;107202;1256;125386;-85
2023/05/26 00:40:40;;;;;;;;;;;;;;;10.81;62.28;101843.85;107412;1257;60403;-84
2023/05/26 00:43:07;;;;;;;;;;;;;;;10.78;62.30;101842.52;107375;1259;125313;-84
2023/05/26 00:46:02;;;;;;;;;;;;;;;10.76;62.39;101846.30;107427;1257;75214;-84
2023/05/26 00:48:31;;;;;;;;;;;;;;;10.75;62.46;101848.70;107430;1256;66771;-84
2023/05/26 00:51:13;;;;;;;;;;;;;;;10.74;62.50;101850.44;107330;1257;124615;-85
2023/05/26 00:53:51;;;;;;;;;;;;;;;10.74;62.52;101849.55;107296;1256;59661;-85
2023/05/26 00:56:18;;;;;;;;;;;;;;;10.73;62.54;101851.10;107341;1257;124091;-85
2023/05/26 00:58:45;;;;;;;;;;;;;;;10.73;62.53;101846.50;107610;1256;75180;-85
2023/05/26 01:01:16;;;;;;;;;;;;;;;10.70;62.51;101848.70;107500;1256;124921;-84
2023/05/26 01:03:44;;;;;;;;;;;;;;;10.68;62.54;101847.38;107772;1257;72461;-85
2023/05/26 01:06:11;;;;;;;;;;;;;;;10.66;62.64;101846.78;107486;1259;61202;-85
2023/05/26 01:08:41;;;;;;;;;;;;;;;10.63;62.64;101844.38;107241;1256;124340;-85
2023/05/26 01:11:21;;;;;;;;;;;;;;;10.61;62.68;101843.90;107537;1257;73405;-86
2023/05/26 01:13:59;;;;;;;;;;;;;;;10.57;62.73;101840.93;107653;1257;124209;-92
2023/05/26 01:16:33;;;;;;;;;;;;;;;10.54;62.80;101842.39;107497;1257;71481;-91
2023/05/26 01:19:02;;;;;;;;;;;;;;;10.51;62.87;101842.61;107581;1257;124708;-91
2023/05/26 01:21:29;;;;;;;;;;;;;;;10.47;62.94;101838.44;107615;1256;62101;-86
2023/05/26 01:24:16;;;;;;;;;;;;;;;10.46;63.01;101840.27;107397;1257;73232;-90
2023/05/26 01:26:59;;;;;;;;;;;;;;;10.42;63.02;101839.61;107719;1256;124103;-90
2023/05/26 01:29:26;;;;;;;;;;;;;;;10.39;63.03;101838.77;107852;1256;71189;-88
2023/05/26 01:31:53;;;;;;;;;;;;;;;10.36;63.18;101837.42;108698;1257;124713;-88
2023/05/26 01:34:20;;;;;;;;;;;;;;;10.33;63.26;101837.29;107841;1262;59713;-86
2023/05/26 01:36:47;;;;;;;;;;;;;;;10.31;63.28;101835.43;107975;1257;125306;-87
2023/05/26 01:39:22;;;;;;;;;;;;;;;10.29;63.35;101836.04;107961;1260;65884;-86
2023/05/26 01:41:54;;;;;;;;;;;;;;;10.28;63.43;101830.19;107721;1256;72676;-87
2023/05/26 01:44:26;;;;;;;;;;;;;;;10.26;63.51;101829.77;108833;1257;124815;-87
2023/05/26 01:46:53;;;;;;;;;;;;;;;10.26;63.57;101830.81;107994;1257;59832;-87
2023/05/26 01:49:20;;;;;;;;;;;;;;;10.26;63.62;101828.86;107836;1257;127001;-87
2023/05/26 01:51:49;;;;;;;;;;;;;;;10.25;63.77;101828.84;108857;1262;66379;-88
2023/05/26 01:54:17;;;;;;;;;;;;;;;10.24;63.73;101832.13;107517;1257;72656;-88
2023/05/26 01:56:45;;;;;;;;;;;;;;;10.23;63.84;101828.05;107857;1257;124124;-87
2023/05/26 01:59:12;;;;;;;;;;;;;;;10.21;63.85;101831.45;108876;1256;59628;-86
2023/05/26 02:01:39;;;;;;;;;;;;;;;10.19;63.89;101833.31;108839;1257;124461;-85
2023/05/26 02:04:12;;;;;;;;;;;;;;;10.17;63.99;101832.35;108609;1257;66757;-87
2023/05/26 02:06:39;;;;;;;;;;;;;;;10.16;64.00;101834.73;107342;1256;73218;-87
2023/05/26 02:09:07;;;;;;;;;;;;;;;10.14;64.10;101839.23;107206;1260;124420;-87
2023/05/26 02:11:49;;;;;;;;;;;;;;;10.12;64.13;101838.09;107465;1257;61574;-88
2023/05/26 02:14:25;;;;;;;;;;;;;;;10.09;64.23;101840.42;107322;1257;124390;-87
2023/05/26 02:20:03;;;;;;;;;;;;;;;10.04;64.43;101840.20;107393;1256;125026;-89
2023/05/26 02:22:51;;;;;;;;;;;;;;;10.02;64.52;101839.04;107495;1257;61299;-88
2023/05/26 02:25:21;;;;;;;;;;;;;;;10.01;64.63;101837.61;107429;1256;125060;-86
2023/05/26 02:27:48;;;;;;;;;;;;;;;10.02;64.78;101838.15;107500;1258;74448;-88
2023/05/26 02:30:16;;;;;;;;;;;;;;;10.01;64.86;101840.24;107517;1256;67419;-87
2023/05/26 02:32:52;;;;;;;;;;;;;;;10.01;64.92;101838.83;107256;1256;124972;-88
2023/05/26 02:35:51;;;;;;;;;;;;;;;10.03;65.03;101839.10;107488;1256;61385;-87
2023/05/26 02:38:25;;;;;;;;;;;;;;;10.05;65.01;101839.19;107221;1256;125063;-87
2023/05/26 02:40:52;;;;;;;;;;;;;;;10.07;65.05;101834.70;107331;1262;73686;-88
2023/05/26 02:43:27;;;;;;;;;;;;;;;10.08;65.03;101836.00;107402;1261;124500;-87
2023/05/26 02:46:14;;;;;;;;;;;;;;;10.10;65.08;101834.69;107523;1256;72599;-88
2023/05/26 02:48:47;;;;;;;;;;;;;;;10.12;65.15;101827.21;107417;1256;61101;-88
2023/05/26 02:51:42;;;;;;;;;;;;;;;10.14;65.18;101830.47;107225;1256;61289;-88
2023/05/26 02:54:31;;;;;;;;;;;;;;;10.17;65.24;101829.88;107658;1257;74501;-88
2023/05/26 02:57:31;;;;;;;;;;;;;;;10.21;65.21;101830.76;107629;1256;124086;-89
2023/05/26 03:00:30;;;;;;;;;;;;;;;10.25;65.27;101833.93;107162;1262;72784;-89
2023/05/26 03:03:05;;;;;;;;;;;;;;;10.29;65.22;101833.77;106960;1262;124863;-88
2023/05/26 03:05:39;;;;;;;;;;;;;;;10.34;65.24;101835.40;107236;1263;60246;-88
2023/05/26 03:08:38;;;;;;;;;;;;;;;10.41;65.27;101835.37;107041;1263;124919;-88
2023/05/26 03:11:58;;;;;;;;;;;;;;;10.51;65.23;101833.70;106905;1266;67113;-89
2023/05/26 03:14:27;;;;;;;;;;;;;;;10.60;65.22;101827.74;107260;1262;124873;-88
2023/05/26 03:16:56;;;;;;;;;;;;;;;10.71;65.10;101833.63;107310;1264;61655;-87
2023/05/26 03:19:24;;;;;;;;;;;;;;;10.80;65.07;101827.88;107171;1262;124360;-86
2023/05/26 03:21:57;;;;;;;;;;;;;;;10.90;64.93;101830.91;107091;1264;74723;-85
2023/05/26 03:24:30;;;;;;;;;;;;;;;11.00;64.85;101825.52;107016;1263;67067;-86
2023/05/26 03:27:03;;;;;;;;;;;;;;;11.11;64.76;101828.77;107136;1262;124288;-86
2023/05/26 03:29:30;;;;;;;;;;;;;;;11.31;64.80;101830.80;107293;1263;61417;-86
2023/05/26 03:31:57;;;;;;;;;;;;;;;11.72;64.91;101832.70;106925;1267;124473;-86
2023/05/26 03:34:31;;;;;;;;;;;;;;;12.25;64.74;101826.92;106920;1262;72825;-86
2023/05/26 03:36:58;;;;;;;;;;;;;;;12.87;64.26;101819.32;106780;1257;124246;-86
2023/05/26 03:39:27;;;;;;;;;;;;;;;13.42;63.58;101814.21;107303;1261;72465;-86
2023/05/26 03:42:08;;;;;;;;;;;;;;;13.91;62.92;101812.64;107424;1259;61840;-87
2023/05/26 03:44:36;;;;;;;;;;;;;;;14.48;62.27;101808.56;107213;1257;124187;-87
2023/05/26 03:47:04;;;;;;;;;;;;;;;15.02;61.44;101808.66;107601;1255;74531;-87
2023/05/26 03:49:39;;;;;;;;;;;;;;;15.49;60.60;101812.73;107444;1261;124325;-87
2023/05/26 03:52:08;;;;;;;;;;;;;;;15.96;59.72;101808.08;107839;1257;73207;-86
2023/05/26 03:54:35;;;;;;;;;;;;;;;16.34;58.76;101810.92;107569;1260;61114;-86
2023/05/26 03:57:08;;;;;;;;;;;;;;;16.77;58.20;101807.77;107263;1258;124041;-86
2023/05/26 03:59:55;;;;;;;;;;;;;;;17.15;57.06;101807.16;107513;1257;74530;-87
2023/05/26 04:02:23;;;;;;;;;;;;;;;17.48;56.49;101811.17;107420;1255;124514;-86
2023/05/26 04:04:54;;;;;;;;;;;;;;;17.86;55.76;101813.27;107333;1257;73641;-87
2023/05/26 04:07:21;;;;;;;;;;;;;;;18.24;55.11;101813.34;107500;1257;124466;-86
2023/05/26 04:09:48;;;;;;;;;;;;;;;18.59;54.33;101815.10;107299;1256;61293;-84
2023/05/26 04:12:16;;;;;;;;;;;;;;;18.94;53.63;101815.23;108331;1255;74678;-86
2023/05/26 04:14:43;;;;;;;;;;;;;;;19.27;53.06;101816.35;107179;1260;125079;-83
2023/05/26 04:17:10;;;;;;;;;;;;;;;19.65;52.39;101820.65;107165;1256;71217;-84
2023/05/26 04:19:38;;;;;;;;;;;;;;;19.98;51.57;101816.36;107369;1260;124064;-84
2023/05/26 04:22:06;;;;;;;;;;;;;;;20.25;50.91;101814.11;107619;1258;60278;-86
2023/05/26 04:24:36;;;;;;;;;;;;;;;20.64;50.34;101812.74;107512;1256;74610;-85
2023/05/26 04:27:07;;;;;;;;;;;;;;;20.98;49.53;101814.35;107274;1256;124080;-83
2023/05/26 04:29:34;;;;;;;;;;;;;;;21.22;48.89;101812.52;108240;1256;72423;-82
2023/05/26 04:32:11;;;;;;;;;;;;;;;21.57;48.28;101810.48;107334;1257;125029;-84
2023/05/26 04:34:38;;;;;;;;;;;;;;;21.89;47.63;101810.71;107577;1257;61220;-83
2023/05/26 04:37:05;;;;;;;;;;;;;;;22.31;47.40;101815.66;107665;1258;124737;-81
2023/05/26 04:39:32;;;;;;;;;;;;;;;22.83;46.62;101815.29;107807;1257;67070;-81
2023/05/26 04:41:59;;;;;;;;;;;;;;;23.20;45.58;101815.14;107769;1258;72758;-80
2023/05/26 04:44:26;;;;;;;;;;;;;;;23.29;44.92;101817.89;107780;1260;124144;-80
2023/05/26 04:46:53;;;;;;;;;;;;;;;23.56;44.65;101822.61;107421;1257;59575;-80
2023/05/26 04:49:23;;;;;;;;;;;;;;;23.83;43.91;101822.31;107520;1257;124972;-79
2023/05/26 04:51:54;;;;;;;;;;;;;;;23.97;43.18;101822.48;107638;1262;67164;-87
2023/05/26 04:54:21;;;;;;;;;;;;;;;24.07;42.59;101820.54;108066;1256;73240;-85
2023/05/26 04:56:54;;;;;;;;;;;;;;;24.11;42.45;101821.38;107313;1257;124133;-92
2023/05/26 04:59:23;;;;;;;;;;;;;;;24.53;41.96;101818.25;107175;1256;61398;-84
2023/05/26 05:02:02;;;;;;;;;;;;;;;24.88;41.69;101823.25;107410;1256;124368;-92
2023/05/26 05:04:30;;;;;;;;;;;;;;;25.18;40.82;101824.89;107444;1257;65580;-86
2023/05/26 05:07:23;;;;;;;;;;;;;;;25.26;40.33;101830.14;107348;1257;123351;-94
2023/05/26 05:12:57;;;;;;;;;;;;;;;25.84;39.59;101844.61;107281;1257;124330;-82
2023/05/26 05:15:26;;;;;;;;;;;;;;;25.99;39.08;101845.94;107403;1261;73445;-82
2023/05/26 05:17:54;;;;;;;;;;;;;;;26.13;38.73;101849.05;107582;1256;67183;-82
2023/05/26 05:20:21;;;;;;;;;;;;;;;26.34;38.46;101858.29;107770;1256;124545;-81
2023/05/26 05:23:02;;;;;;;;;;;;;;;26.34;37.48;101857.20;107746;1257;59834;-88
2023/05/26 05:25:30;;;;;;;;;;;;;;;26.32;37.54;101855.64;107965;1256;125355;-85
2023/05/26 05:27:57;;;;;;;;;;;;;;;26.64;37.39;101852.73;107650;1257;74430;-84
2023/05/26 05:30:30;;;;;;;;;;;;;;;26.88;36.69;101858.44;107664;1256;67208;-84
2023/05/26 05:33:09;;;;;;;;;;;;;;;27.03;36.50;101863.65;107586;1257;124384;-84
2023/05/26 05:35:45;;;;;;;;;;;;;;;26.74;35.59;101865.26;107887;1257;60892;-83
2023/05/26 05:38:14;;;;;;;;;;;;;;;25.55;35.14;101870.36;107556;1257;124092;-84
2023/05/26 05:40:42;;;;;;;;;;;;;;;23.97;35.39;101874.78;107511;1260;73195;-84
2023/05/26 05:43:20;;;;;;;;;;;;;;;22.66;36.31;101877.67;107172;1263;124464;-84
2023/05/26 05:45:54;;;;;;;;;;;;;;;21.59;37.06;101879.77;107223;1256;72496;-84
2023/05/26 05:48:21;;;;;;;;;;;;;;;20.66;37.91;101878.20;107406;1257;59278;-90
2023/05/26 05:50:48;;;;;;;;;;;;;;;19.90;38.63;101881.17;107175;1257;124101;-84
2023/05/26 05:56:19;;;;;;;;;;;;;;;19.04;40.09;101877.23;107491;1258;124138;-91
2023/05/26 05:58:55;;;;;;;;;;;;;;;18.87;40.92;101879.21;107667;1256;71729;-91
2023/05/26 06:01:28;;;;;;;;;;;;;;;18.80;41.12;101885.00;107365;1257;124620;-84
2023/05/26 06:03:58;;;;;;;;;;;;;;;18.67;41.47;101884.52;107468;1258;62151;-84
2023/05/26 06:06:25;;;;;;;;;;;;;;;18.52;41.56;101886.51;107420;1256;74832;-84
2023/05/26 06:08:57;;;;;;;;;;;;;;;18.37;41.90;101887.05;107881;1257;125010;-84
2023/05/26 06:11:36;;;;;;;;;;;;;;;18.19;42.15;101892.00;107743;1256;71121;-84
2023/05/26 06:14:03;;;;;;;;;;;;;;;18.21;42.56;101898.77;107462;1257;124597;-84
2023/05/26 06:16:30;;;;;;;;;;;;;;;18.26;42.63;101896.70;107600;1257;59966;-84
2023/05/26 06:18:58;;;;;;;;;;;;;;;18.32;42.65;101905.11;107586;1257;124367;-84
2023/05/26 06:21:25;;;;;;;;;;;;;;;18.10;42.23;101899.88;107451;1257;67165;-84
2023/05/26 06:23:53;;;;;;;;;;;;;;;17.81;42.30;101902.33;107552;1258;72875;-84
2023/05/26 06:26:21;;;;;;;;;;;;;;;17.57;42.65;101906.77;107622;1256;124181;-84
2023/05/26 06:28:57;;;;;;;;;;;;;;;17.46;42.99;101912.64;107648;1256;61302;-84
2023/05/26 06:31:25;;;;;;;;;;;;;;;17.34;43.18;101912.98;107933;1256;124607;-84
2023/05/26 06:34:06;;;;;;;;;;;;;;;17.23;43.31;101918.14;107623;1257;65855;-84
2023/05/26 06:36:35;;;;;;;;;;;;;;;17.19;43.56;101917.18;107494;1257;72592;-84
2023/05/26 06:39:03;;;;;;;;;;;;;;;17.13;43.82;101924.36;107322;1257;124066;-84
2023/05/26 06:41:30;;;;;;;;;;;;;;;17.23;44.27;101923.83;107441;1258;59553;-84
2023/05/26 06:43:59;;;;;;;;;;;;;;;17.31;44.02;101932.98;107670;1257;124053;-84
2023/05/26 06:46:39;;;;;;;;;;;;;;;17.07;43.85;101937.90;107777;1257;65621;-85
2023/05/26 06:49:12;;;;;;;;;;;;;;;16.89;44.22;101939.02;107395;1257;124243;-84
2023/05/26 06:51:47;;;;;;;;;;;;;;;16.80;44.29;101936.70;107619;1257;61265;-85
2023/05/26 06:54:16;;;;;;;;;;;;;;;16.83;44.55;101934.98;107681;1257;59544;-84
2023/05/26 06:57:00;;;;;;;;;;;;;;;16.89;45.03;101934.23;107466;1257;124082;-85
2023/05/26 06:59:29;;;;;;;;;;;;;;;17.03;45.03;101930.41;107720;1257;64725;-84
2023/05/26 07:01:57;;;;;;;;;;;;;;;17.09;44.93;101927.30;107600;1255;124195;-84
2023/05/26 07:04:33;;;;;;;;;;;;;;;17.17;44.95;101921.59;107601;1257;61228;-84
2023/05/26 07:07:00;;;;;;;;;;;;;;;17.27;44.84;101920.88;107562;1257;124964;-85
2023/05/26 07:09:27;;;;;;;;;;;;;;;17.34;44.80;101921.67;107807;1256;74799;-84
2023/05/26 07:11:54;;;;;;;;;;;;;;;17.25;44.46;101928.82;107948;1257;67118;-84
2023/05/26 07:14:28;;;;;;;;;;;;;;;17.04;44.21;101932.19;107716;1256;124941;-84
2023/05/26 07:17:05;;;;;;;;;;;;;;;16.79;44.41;101936.34;107887;1256;60577;-84
2023/05/26 07:19:32;;;;;;;;;;;;;;;16.63;44.85;101935.84;107584;1257;124703;-84
2023/05/26 07:22:07;;;;;;;;;;;;;;;16.56;44.95;101938.89;107467;1257;74708;-84
2023/05/26 07:24:46;;;;;;;;;;;;;;;16.49;45.11;101944.27;107750;1257;65917;-84
2023/05/26 07:27:15;;;;;;;;;;;;;;;16.44;45.30;101938.48;107720;1256;124494;-84
2023/05/26 07:29:42;;;;;;;;;;;;;;;16.44;45.38;101938.13;107728;1257;62188;-84
2023/05/26 07:32:11;;;;;;;;;;;;;;;16.50;45.12;101939.51;107638;1257;124069;-84
2023/05/26 07:34:38;;;;;;;;;;;;;;;16.59;44.90;101930.64;107705;1256;73071;-84
2023/05/26 07:37:06;;;;;;;;;;;;;;;16.72;45.02;101932.84;107435;1257;124239;-84
2023/05/26 07:39:33;;;;;;;;;;;;;;;16.92;44.96;101934.29;107797;1257;72941;-84
2023/05/26 07:42:03;;;;;;;;;;;;;;;17.00;44.59;101936.91;107724;1257;60921;-84
2023/05/26 07:44:31;;;;;;;;;;;;;;;17.07;44.53;101938.80;107758;1256;124249;-84
2023/05/26 07:46:58;;;;;;;;;;;;;;;17.16;44.31;101943.58;107931;1256;75237;-84
2023/05/26 07:49:31;;;;;;;;;;;;;;;17.18;43.48;101945.91;108041;1256;124442;-84
2023/05/26 07:52:09;;;;;;;;;;;;;;;17.04;42.15;101955.23;107544;1256;71490;-84
2023/05/26 07:54:38;;;;;;;;;;;;;;;16.90;41.89;101956.23;107487;1256;63338;-84
2023/05/26 07:57:07;;;;;;;;;;;;;;;16.88;42.17;101958.69;107712;1257;124597;-84
2023/05/26 07:59:45;;;;;;;;;;;;;;;16.93;42.22;101967.81;107580;1256;73387;-84
2023/05/26 08:02:13;;;;;;;;;;;;;;;16.92;42.30;101970.09;107379;1257;124080;-85
2023/05/26 08:04:40;;;;;;;;;;;;;;;16.99;42.75;101967.21;107569;1256;71816;-85
2023/05/26 08:07:10;;;;;;;;;;;;;;;17.10;42.95;101980.34;107414;1256;124385;-85
2023/05/26 08:09:42;;;;;;;;;;;;;;;17.19;43.15;101980.69;107564;1257;60308;-85
2023/05/26 08:12:09;;;;;;;;;;;;;;;17.35;43.30;101975.10;107564;1257;74672;-85
2023/05/26 08:14:37;;;;;;;;;;;;;;;17.52;43.36;101974.65;107340;1256;124763;-85
2023/05/26 08:17:26;;;;;;;;;;;;;;;17.64;43.17;101970.95;107654;1257;72756;-84
2023/05/26 08:19:55;;;;;;;;;;;;;;;17.72;43.01;101970.02;107507;1256;124250;-85
2023/05/26 08:22:38;;;;;;;;;;;;;;;17.78;43.08;101965.67;107620;1256;60359;-85
2023/05/26 08:25:16;;;;;;;;;;;;;;;17.86;43.02;101962.08;107471;1256;124290;-84
2023/05/26 08:28:02;;;;;;;;;;;;;;;17.92;42.83;101965.72;107676;1256;67584;-85
2023/05/26 08:30:37;;;;;;;;;;;;;;;17.97;42.75;101967.39;107566;1257;71503;-85
2023/05/26 08:33:20;;;;;;;;;;;;;;;18.00;42.56;101967.23;107291;1256;124147;-85
2023/05/26 08:36:20;;;;;;;;;;;;;;;18.05;42.54;101965.54;107581;1257;59635;-85
2023/05/26 08:38:47;;;;;;;;;;;;;;;18.11;42.30;101968.10;107392;1257;125313;-85
2023/05/26 08:41:33;;;;;;;;;;;;;;;18.13;42.17;101970.79;107789;1259;65894;-85
2023/05/26 08:44:01;;;;;;;;;;;;;;;18.19;41.97;101971.60;107433;1257;124658;-84
2023/05/26 08:46:36;;;;;;;;;;;;;;;18.24;41.96;101969.52;107630;1256;61133;-84
2023/05/26 08:49:04;;;;;;;;;;;;;;;18.35;42.05;101971.26;107708;1256;124476;-84
2023/05/26 08:51:35;;;;;;;;;;;;;;;18.40;41.64;101979.33;107437;1257;74355;-84
2023/05/26 08:54:11;;;;;;;;;;;;;;;18.31;41.42;101977.96;107716;1256;67052;-84
2023/05/26 08:56:42;;;;;;;;;;;;;;;18.24;41.63;101969.89;107407;1257;124163;-84
2023/05/26 08:59:10;;;;;;;;;;;;;;;18.28;41.65;101972.23;107233;1256;59540;-84
2023/05/26 09:01:40;;;;;;;;;;;;;;;18.33;41.54;101979.23;107375;1256;124262;-84
2023/05/26 09:04:07;;;;;;;;;;;;;;;18.34;41.38;101974.42;107534;1256;74632;-84
2023/05/26 09:06:35;;;;;;;;;;;;;;;18.38;41.45;101978.58;107470;1256;67439;-84
2023/05/26 09:09:26;;;;;;;;;;;;;;;18.40;41.24;101985.18;107223;1256;124338;-86
2023/05/26 09:12:11;;;;;;;;;;;;;;;18.42;41.10;101986.64;107332;1256;59685;-84
2023/05/26 09:14:39;;;;;;;;;;;;;;;18.44;40.66;101987.02;107307;1257;124836;-84
2023/05/26 09:17:06;;;;;;;;;;;;;;;18.44;40.65;101987.91;107238;1257;74761;-84
2023/05/26 09:19:44;;;;;;;;;;;;;;;18.51;40.47;101988.17;107068;1256;124746;-84
2023/05/26 09:22:14;;;;;;;;;;;;;;;18.57;40.34;101989.30;107221;1256;70985;-84
2023/05/26 09:24:51;;;;;;;;;;;;;;;18.61;40.20;101990.77;107162;1256;61393;-84
2023/05/26 09:27:29;;;;;;;;;;;;;;;18.66;39.88;101997.77;107356;1256;60195;-85
2023/05/26 09:30:08;;;;;;;;;;;;;;;18.58;39.74;101995.35;107585;1255;74575;-84
2023/05/26 09:32:37;;;;;;;;;;;;;;;18.59;39.99;101995.90;107031;1257;124142;-83
2023/05/26 09:35:05;;;;;;;;;;;;;;;18.60;39.70;101999.64;107139;1256;71405;-83
2023/05/26 09:37:42;;;;;;;;;;;;;;;18.55;39.38;101999.40;107103;1256;124319;-84
2023/05/26 09:40:14;;;;;;;;;;;;;;;18.56;39.50;101998.01;107442;1256;60648;-85
2023/05/26 09:42:47;;;;;;;;;;;;;;;18.63;39.21;102003.77;107304;1256;286661;-85
2023/05/26 09:45:15;;;;;;;;;;;;;;;18.63;38.87;102005.73;107278;1256;124209;-86
2023/05/26 09:50:50;;;;;;;;;;;;;;;18.76;38.40;102008.73;107149;1256;124194;-85
2023/05/26 09:53:17;;;;;;;;;;;;;;;18.70;37.55;102007.59;107456;1256;59840;-85
2023/05/26 09:55:45;;;;;;;;;;;;;;;18.66;37.27;102003.61;107159;1256;124302;-86
2023/05/26 09:58:13;;;;;;;;;;;;;;;18.66;37.07;102013.23;107178;1256;67093;-86
2023/05/26 10:00:42;;;;;;;;;;;;;;;18.53;36.79;102022.48;107332;1256;72547;-85
2023/05/26 10:03:10;;;;;;;;;;;;;;;18.40;36.63;102016.45;107418;1257;124141;-84
2023/05/26 10:05:40;;;;;;;;;;;;;;;18.28;36.22;102022.34;107640;1256;59965;-87
2023/05/26 10:08:07;;;;;;;;;;;;;;;18.09;36.34;102014.27;107397;1256;124630;-84
2023/05/26 10:10:34;;;;;;;;;;;;;;;18.05;36.88;102014.91;107375;1256;65655;-85
2023/05/26 10:13:04;;;;;;;;;;;;;;;18.14;37.17;102017.54;107111;1256;124227;-86
2023/05/26 10:15:50;;;;;;;;;;;;;;;18.22;37.16;102016.23;107258;1256;60460;-85
2023/05/26 10:18:17;;;;;;;;;;;;;;;18.29;37.41;102017.56;107249;1256;61385;-85
2023/05/26 10:20:48;;;;;;;;;;;;;;;18.32;37.46;102019.03;107141;1256;124101;-84
2023/05/26 10:23:27;;;;;;;;;;;;;;;18.28;37.18;102019.33;107193;1256;65654;-84
2023/05/26 10:26:04;;;;;;;;;;;;;;;18.16;37.17;102024.14;107031;1260;124214;-85
2023/05/26 10:28:42;;;;;;;;;;;;;;;18.11;37.57;102019.44;107475;1256;61200;-92
2023/05/26 10:34:38;;;;;;;;;;;;;;;18.38;37.95;102008.96;107577;1256;74673;-85
2023/05/26 10:37:25;;;;;;;;;;;;;;;18.57;37.91;102014.19;107222;1256;124166;-85
2023/05/26 10:39:53;;;;;;;;;;;;;;;18.72;37.91;102014.20;107389;1256;72718;-84
2023/05/26 10:42:22;;;;;;;;;;;;;;;18.77;37.75;102014.24;107170;1262;60545;-84
2023/05/26 10:44:56;;;;;;;;;;;;;;;18.79;37.80;102016.58;107217;1256;124091;-84
2023/05/26 10:47:38;;;;;;;;;;;;;;;18.83;37.91;102023.77;107384;1256;74655;-85
2023/05/26 10:50:07;;;;;;;;;;;;;;;18.82;37.77;102020.73;107624;1256;124330;-84
2023/05/26 10:52:47;;;;;;;;;;;;;;;18.85;37.82;102024.69;107993;1256;70092;-84
2023/05/26 10:55:36;;;;;;;;;;;;;;;18.90;37.67;102027.76;107125;1256;124264;-84
2023/05/26 10:58:22;;;;;;;;;;;;;;;18.81;37.46;102023.56;107303;1256;61392;-84
2023/05/26 11:00:53;;;;;;;;;;;;;;;18.89;37.36;102027.92;107712;1256;75184;-84
2023/05/26 11:10:09;;;;;;;;;;;;;;;19.00;36.49;102028.58;107506;1260;60474;-84
2023/05/26 11:12:57;;;;;;;;;;;;;;;18.96;36.68;102031.91;107316;1256;60486;-84
2023/05/26 11:15:27;;;;;;;;;;;;;;;19.00;36.60;102034.27;107420;1256;73767;-84
2023/05/26 11:17:55;;;;;;;;;;;;;;;19.04;36.50;102025.95;107642;1256;66926;-84
2023/05/26 11:20:44;;;;;;;;;;;;;;;19.11;36.56;102017.31;107163;1256;124083;-85
2023/05/26 11:23:19;;;;;;;;;;;;;;;19.21;36.72;102023.46;107395;1256;61296;-85
2023/05/26 11:25:46;;;;;;;;;;;;;;;19.27;36.27;102024.73;107355;1256;125013;-84
2023/05/26 11:28:25;;;;;;;;;;;;;;;19.20;36.06;102025.58;107587;1256;73397;-84
2023/05/26 11:30:52;;;;;;;;;;;;;;;19.14;36.08;102029.25;107578;1257;64976;-84
2023/05/26 11:33:20;;;;;;;;;;;;;;;19.05;36.43;102024.89;107315;1257;124627;-85
2023/05/26 11:35:56;;;;;;;;;;;;;;;19.05;36.64;102019.02;107577;1256;61032;-85
2023/05/26 11:38:24;;;;;;;;;;;;;;;19.15;36.69;102021.08;107623;1256;124006;-85
2023/05/26 11:40:51;;;;;;;;;;;;;;;19.22;36.60;102016.70;107663;1256;74508;-85
2023/05/26 11:43:22;;;;;;;;;;;;;;;19.32;36.69;102021.60;107299;1257;124401;-85
2023/05/26 11:45:55;;;;;;;;;;;;;;;19.38;36.51;102026.11;107288;1260;71384;-85
2023/05/26 11:48:22;;;;;;;;;;;;;;;19.42;36.47;102024.88;107566;1256;61196;-85
2023/05/26 11:51:08;;;;;;;;;;;;;;;19.51;36.35;102023.71;107474;1256;124950;-85
2023/05/26 11:53:57;;;;;;;;;;;;;;;19.59;36.28;102021.46;107438;1256;73408;-84
2023/05/26 11:56:45;;;;;;;;;;;;;;;19.67;35.92;102028.48;107324;1256;124524;-84
2023/05/26 11:59:19;;;;;;;;;;;;;;;19.59;35.57;102030.02;107345;1256;72412;-85
2023/05/26 12:01:49;;;;;;;;;;;;;;;19.64;35.68;102025.95;107174;1256;124111;-84
2023/05/26 12:04:29;;;;;;;;;;;;;;;19.73;35.67;102021.77;107188;1262;60135;-85
2023/05/26 12:06:58;;;;;;;;;;;;;;;19.79;35.49;102025.04;107370;1256;73578;-85
2023/05/26 12:09:25;;;;;;;;;;;;;;;19.78;35.38;102024.14;107721;1256;65467;-85
2023/05/26 12:11:52;;;;;;;;;;;;;;;19.91;35.48;102029.39;107308;1256;72507;-85
2023/05/26 12:14:22;;;;;;;;;;;;;;;20.02;35.33;102032.48;107145;1256;124224;-85
2023/05/26 12:16:53;;;;;;;;;;;;;;;20.13;35.30;102031.67;107596;1256;61102;-86
2023/05/26 12:19:22;;;;;;;;;;;;;;;20.26;34.94;102029.79;107451;1256;124227;-86
2023/05/26 12:22:08;;;;;;;;;;;;;;;20.32;34.95;102027.14;107204;1256;67294;-85
2023/05/26 12:24:42;;;;;;;;;;;;;;;20.49;35.16;102031.52;107181;1256;72447;-86
2023/05/26 12:27:11;;;;;;;;;;;;;;;20.50;34.78;102042.92;107264;1256;124671;-85
2023/05/26 12:29:38;;;;;;;;;;;;;;;20.36;34.47;102051.94;107335;1256;61334;-85
2023/05/26 12:32:07;;;;;;;;;;;;;;;20.15;34.36;102052.88;107318;1256;124704;-85
2023/05/26 12:34:38;;;;;;;;;;;;;;;19.95;34.52;102050.27;107477;1256;65641;-85
2023/05/26 12:37:11;;;;;;;;;;;;;;;19.90;34.80;102052.36;107394;1256;124258;-86
2023/05/26 12:39:40;;;;;;;;;;;;;;;19.82;34.86;102047.32;107423;1256;60749;-85
2023/05/26 12:42:15;;;;;;;;;;;;;;;19.73;35.06;102049.94;107273;1256;59981;-85
2023/05/26 12:44:48;;;;;;;;;;;;;;;19.80;35.54;102048.91;107019;1256;124321;-84
2023/05/26 12:47:27;;;;;;;;;;;;;;;19.88;35.78;102051.11;107366;1260;65738;-84
2023/05/26 12:50:04;;;;;;;;;;;;;;;19.91;35.83;102052.20;107424;1256;124095;-84
2023/05/26 12:52:40;;;;;;;;;;;;;;;19.86;36.00;102055.90;107523;1256;59959;-84
2023/05/26 12:55:13;;;;;;;;;;;;;;;19.71;35.84;102063.61;107409;1256;124285;-84
2023/05/26 12:57:46;;;;;;;;;;;;;;;19.53;35.99;102062.19;107249;1256;73681;-86
2023/05/26 13:00:13;;;;;;;;;;;;;;;19.42;36.52;102066.91;107456;1256;65826;-84
2023/05/26 13:03:02;;;;;;;;;;;;;;;19.51;36.72;102071.08;107305;1256;71422;-85
2023/05/26 13:05:46;;;;;;;;;;;;;;;19.39;36.69;102073.64;107226;1256;60904;-86
2023/05/26 13:08:13;;;;;;;;;;;;;;;19.17;36.77;102074.13;107125;1256;60270;-83
2023/05/26 13:10:40;;;;;;;;;;;;;;;19.03;37.05;102072.56;107230;1256;74574;-83
2023/05/26 13:13:13;;;;;;;;;;;;;;;19.02;37.38;102068.45;107624;1259;124705;-88
2023/05/26 13:15:41;;;;;;;;;;;;;;;18.99;37.46;102073.58;107616;1257;71498;-84